Battleground, Washington
Current Conditions -  °F | °C
As of 7:45 AM on Monday 22 Dec 2014 (Local Time) from KVUO Reporting Station
Haze Haze  
Wind Chill: 45°   Ceiling: 3200
Heat Index: 45°   Visibility: 1mi
Dew Point: 44°   Wind: 0mph
Humidity: 97%   Direction: NA
Pressure: 30.34"   Gusts: NA
Location:  45.8003°N, 122.498°W
Report Text: KVUO 221545Z AUTO 00000KT 1SM BR FEW004 BKN032 OVC039 07/07 A3034 RMK AO2 T00720067
Loading
Personal Weather Stations






























Interactive Weather Map New forecast layout! Learn more

10-Day Weather Forecast

Advertisements
Track Severe Weather on mobile